Terminal Aerodrome Forecast
Issued by NWS

Home | Current Version | Previous Version | Text Only | Print | Product List | Glossary On
Versions: 1 2 3 4 5 6 7 8 9 10 11 12 13 14
000
FTUS44 KTSA 261131
TAFXNA
TAF
KXNA 261131Z 2612/2712 11010KT P6SM SCT025 BKN250
     FM261500 18012KT P6SM OVC025
     FM270300 18005KT 4SM BR OVC012
     FM270600 20004KT 2SM BR OVC007
     FM270900 20004KT 1/2SM FG OVC004=

USA.gov is the U.S. government's official web portal to all federal, state and local government web resources and services.